Manitou Springs, Colorado
Current Conditions -  °F | °C
As of 3:56 AM on Tuesday 21 Oct 2014 (Local Time) from KCWN Reporting Station
Clear Clear  
Wind Chill: 10°   Ceiling: Unl
Heat Index: 10°   Visibility: 10mi
Dew Point:   Wind: 3mph
Humidity: 58%   Direction: 180°S
Pressure: 30.13"   Gusts: NA
Location:  38.86°N, 104.92°W
Report Text: KCWN 210956Z AUTO 18003KT 10SM CLR 10/02 A3013 RMK AO2 SLP149 T01010022
Loading
Personal Weather Stations






























Interactive Weather Map
Tropical Storm Tracking
New forecast layout! Learn more

10-Day Weather Forecast

Advertisements
Track Severe Weather on mobile